sensor_id;sensor_type;location;lat;lon;timestamp;P1;durP1;ratioP1;P2;durP2;ratioP2
76320;SDS011;65132;52.088;5.402;2023-09-12T00:00:36;27.20;;;13.85;;
76320;SDS011;65132;52.088;5.402;2023-09-12T00:03:07;28.05;;;15.02;;
76320;SDS011;65132;52.088;5.402;2023-09-12T00:05:37;28.05;;;15.02;;
76320;SDS011;65132;52.088;5.402;2023-09-12T00:08:12;29.75;;;14.85;;
76320;SDS011;65132;52.088;5.402;2023-09-12T00:10:39;26.45;;;14.10;;
76320;SDS011;65132;52.088;5.402;2023-09-12T00:13:25;27.52;;;14.18;;
76320;SDS011;65132;52.088;5.402;2023-09-12T00:15:59;31.05;;;16.38;;
76320;SDS011;65132;52.088;5.402;2023-09-12T00:18:26;32.25;;;15.68;;
76320;SDS011;65132;52.088;5.402;2023-09-12T00:20:54;33.58;;;17.63;;
76320;SDS011;65132;52.088;5.402;2023-09-12T00:23:21;31.95;;;16.35;;
76320;SDS011;65132;52.088;5.402;2023-09-12T00:25:51;32.10;;;15.73;;
76320;SDS011;65132;52.088;5.402;2023-09-12T00:28:19;29.27;;;15.48;;
76320;SDS011;65132;52.088;5.402;2023-09-12T00:30:51;28.80;;;14.60;;
76320;SDS011;65132;52.088;5.402;2023-09-12T00:33:21;28.27;;;15.13;;
76320;SDS011;65132;52.088;5.402;2023-09-12T00:35:56;27.02;;;14.13;;
76320;SDS011;65132;52.088;5.402;2023-09-12T00:38:24;26.05;;;14.27;;
76320;SDS011;65132;52.088;5.402;2023-09-12T00:40:51;26.45;;;13.35;;
76320;SDS011;65132;52.088;5.402;2023-09-12T00:43:21;28.00;;;14.38;;
76320;SDS011;65132;52.088;5.402;2023-09-12T00:45:48;25.45;;;13.00;;
76320;SDS011;65132;52.088;5.402;2023-09-12T00:48:22;23.17;;;12.77;;
76320;SDS011;65132;52.088;5.402;2023-09-12T00:50:50;23.23;;;12.55;;
76320;SDS011;65132;52.088;5.402;2023-09-12T00:53:22;24.48;;;12.85;;
76320;SDS011;65132;52.088;5.402;2023-09-12T00:55:54;37.10;;;13.15;;
76320;SDS011;65132;52.088;5.402;2023-09-12T00:58:23;24.63;;;12.77;;
76320;SDS011;65132;52.088;5.402;2023-09-12T01:00:59;28.02;;;12.55;;
76320;SDS011;65132;52.088;5.402;2023-09-12T01:03:26;26.38;;;11.45;;
76320;SDS011;65132;52.088;5.402;2023-09-12T01:05:53;24.17;;;12.63;;
76320;SDS011;65132;52.088;5.402;2023-09-12T01:08:34;21.73;;;12.45;;
76320;SDS011;65132;52.088;5.402;2023-09-12T01:11:01;21.35;;;11.57;;
76320;SDS011;65132;52.088;5.402;2023-09-12T01:13:29;18.50;;;10.70;;
76320;SDS011;65132;52.088;5.402;2023-09-12T01:15:56;18.77;;;9.98;;
76320;SDS011;65132;52.088;5.402;2023-09-12T01:18:25;22.70;;;11.63;;
76320;SDS011;65132;52.088;5.402;2023-09-12T01:21:04;20.27;;;11.00;;
76320;SDS011;65132;52.088;5.402;2023-09-12T01:26:55;20.75;;;12.60;;
76320;SDS011;65132;52.088;5.402;2023-09-12T01:29:46;21.40;;;12.20;;
76320;SDS011;65132;52.088;5.402;2023-09-12T01:32:17;22.63;;;12.18;;
76320;SDS011;65132;52.088;5.402;2023-09-12T01:37:25;31.58;;;15.52;;
76320;SDS011;65132;52.088;5.402;2023-09-12T01:39:52;35.20;;;15.70;;
76320;SDS011;65132;52.088;5.402;2023-09-12T01:42:21;29.58;;;15.40;;
76320;SDS011;65132;52.088;5.402;2023-09-12T01:44:49;32.30;;;15.73;;
76320;SDS011;65132;52.088;5.402;2023-09-12T01:47:22;27.60;;;14.40;;
76320;SDS011;65132;52.088;5.402;2023-09-12T01:49:57;31.73;;;16.02;;
76320;SDS011;65132;52.088;5.402;2023-09-12T01:52:27;24.70;;;13.20;;
76320;SDS011;65132;52.088;5.402;2023-09-12T01:54:54;28.35;;;13.82;;
76320;SDS011;65132;52.088;5.402;2023-09-12T01:57:25;24.20;;;12.93;;
76320;SDS011;65132;52.088;5.402;2023-09-12T01:59:52;18.30;;;11.10;;
76320;SDS011;65132;52.088;5.402;2023-09-12T02:02:19;53.45;;;11.80;;
76320;SDS011;65132;52.088;5.402;2023-09-12T02:07:44;29.20;;;12.07;;
76320;SDS011;65132;52.088;5.402;2023-09-12T02:10:19;35.47;;;12.75;;
76320;SDS011;65132;52.088;5.402;2023-09-12T02:12:47;18.00;;;11.13;;
76320;SDS011;65132;52.088;5.402;2023-09-12T02:15:17;23.33;;;10.40;;
76320;SDS011;65132;52.088;5.402;2023-09-12T02:17:43;22.90;;;11.30;;
76320;SDS011;65132;52.088;5.402;2023-09-12T02:20:13;32.83;;;11.68;;
76320;SDS011;65132;52.088;5.402;2023-09-12T02:22:42;43.85;;;11.25;;
76320;SDS011;65132;52.088;5.402;2023-09-12T02:25:08;16.42;;;10.70;;
76320;SDS011;65132;52.088;5.402;2023-09-12T02:27:35;27.55;;;11.05;;
76320;SDS011;65132;52.088;5.402;2023-09-12T02:30:04;20.17;;;10.07;;
76320;SDS011;65132;52.088;5.402;2023-09-12T02:32:47;21.77;;;10.38;;
76320;SDS011;65132;52.088;5.402;2023-09-12T02:35:14;22.48;;;10.25;;
76320;SDS011;65132;52.088;5.402;2023-09-12T02:37:44;20.73;;;10.23;;
76320;SDS011;65132;52.088;5.402;2023-09-12T02:40:13;27.60;;;10.75;;
76320;SDS011;65132;52.088;5.402;2023-09-12T02:42:48;28.95;;;11.50;;
76320;SDS011;65132;52.088;5.402;2023-09-12T02:45:16;20.42;;;11.10;;
76320;SDS011;65132;52.088;5.402;2023-09-12T02:47:46;16.67;;;10.23;;
76320;SDS011;65132;52.088;5.402;2023-09-12T02:50:20;14.95;;;8.93;;
76320;SDS011;65132;52.088;5.402;2023-09-12T02:52:54;16.85;;;9.93;;
76320;SDS011;65132;52.088;5.402;2023-09-12T02:55:23;14.15;;;9.00;;
76320;SDS011;65132;52.088;5.402;2023-09-12T02:57:53;18.88;;;10.50;;
76320;SDS011;65132;52.088;5.402;2023-09-12T03:00:20;15.48;;;9.32;;
76320;SDS011;65132;52.088;5.402;2023-09-12T03:03:01;13.77;;;8.70;;
76320;SDS011;65132;52.088;5.402;2023-09-12T03:05:28;14.10;;;8.88;;
76320;SDS011;65132;52.088;5.402;2023-09-12T03:07:57;15.80;;;9.65;;
76320;SDS011;65132;52.088;5.402;2023-09-12T03:10:23;16.40;;;9.63;;
76320;SDS011;65132;52.088;5.402;2023-09-12T03:12:51;16.08;;;8.95;;
76320;SDS011;65132;52.088;5.402;2023-09-12T03:15:20;15.45;;;9.07;;
76320;SDS011;65132;52.088;5.402;2023-09-12T03:17:49;16.75;;;9.98;;
76320;SDS011;65132;52.088;5.402;2023-09-12T03:20:31;17.98;;;10.55;;
76320;SDS011;65132;52.088;5.402;2023-09-12T03:23:00;13.95;;;8.38;;
76320;SDS011;65132;52.088;5.402;2023-09-12T03:25:26;13.80;;;8.23;;
76320;SDS011;65132;52.088;5.402;2023-09-12T03:27:53;16.05;;;10.00;;
76320;SDS011;65132;52.088;5.402;2023-09-12T03:32:49;13.50;;;8.23;;
76320;SDS011;65132;52.088;5.402;2023-09-12T03:35:23;13.35;;;8.50;;
76320;SDS011;65132;52.088;5.402;2023-09-12T03:38:06;14.77;;;9.13;;
76320;SDS011;65132;52.088;5.402;2023-09-12T03:40:38;23.52;;;10.95;;
76320;SDS011;65132;52.088;5.402;2023-09-12T03:43:05;19.77;;;9.40;;
76320;SDS011;65132;52.088;5.402;2023-09-12T03:45:31;15.30;;;8.50;;
76320;SDS011;65132;52.088;5.402;2023-09-12T03:48:02;18.33;;;9.43;;
76320;SDS011;65132;52.088;5.402;2023-09-12T03:50:41;18.17;;;9.30;;
76320;SDS011;65132;52.088;5.402;2023-09-12T03:53:18;16.10;;;8.68;;
76320;SDS011;65132;52.088;5.402;2023-09-12T03:55:46;21.35;;;8.73;;
76320;SDS011;65132;52.088;5.402;2023-09-12T03:58:17;21.85;;;9.32;;
76320;SDS011;65132;52.088;5.402;2023-09-12T04:01:07;22.60;;;10.02;;
76320;SDS011;65132;52.088;5.402;2023-09-12T04:03:34;19.70;;;9.77;;
76320;SDS011;65132;52.088;5.402;2023-09-12T04:06:02;22.75;;;10.65;;
76320;SDS011;65132;52.088;5.402;2023-09-12T04:08:38;23.42;;;10.48;;
76320;SDS011;65132;52.088;5.402;2023-09-12T04:11:06;23.77;;;11.98;;
76320;SDS011;65132;52.088;5.402;2023-09-12T04:13:38;31.27;;;11.45;;
76320;SDS011;65132;52.088;5.402;2023-09-12T04:16:07;28.30;;;10.88;;
76320;SDS011;65132;52.088;5.402;2023-09-12T04:18:41;22.15;;;10.38;;
76320;SDS011;65132;52.088;5.402;2023-09-12T04:21:10;25.70;;;11.65;;
76320;SDS011;65132;52.088;5.402;2023-09-12T04:23:38;26.98;;;12.55;;
76320;SDS011;65132;52.088;5.402;2023-09-12T04:26:13;22.63;;;11.20;;
76320;SDS011;65132;52.088;5.402;2023-09-12T04:28:47;20.88;;;10.40;;
76320;SDS011;65132;52.088;5.402;2023-09-12T04:31:16;23.35;;;10.60;;
76320;SDS011;65132;52.088;5.402;2023-09-12T04:33:45;22.13;;;10.35;;
76320;SDS011;65132;52.088;5.402;2023-09-12T04:36:15;26.08;;;11.40;;
76320;SDS011;65132;52.088;5.402;2023-09-12T04:38:44;25.60;;;11.05;;
76320;SDS011;65132;52.088;5.402;2023-09-12T04:41:21;29.25;;;12.77;;
76320;SDS011;65132;52.088;5.402;2023-09-12T04:43:53;29.02;;;12.88;;
76320;SDS011;65132;52.088;5.402;2023-09-12T04:46:22;30.38;;;11.85;;
76320;SDS011;65132;52.088;5.402;2023-09-12T04:48:49;24.77;;;12.02;;
76320;SDS011;65132;52.088;5.402;2023-09-12T04:51:24;31.40;;;13.27;;
76320;SDS011;65132;52.088;5.402;2023-09-12T04:53:56;32.17;;;13.15;;
76320;SDS011;65132;52.088;5.402;2023-09-12T04:56:28;30.70;;;13.30;;
76320;SDS011;65132;52.088;5.402;2023-09-12T04:58:58;30.02;;;13.45;;
76320;SDS011;65132;52.088;5.402;2023-09-12T05:01:27;30.48;;;13.27;;
76320;SDS011;65132;52.088;5.402;2023-09-12T05:03:56;29.85;;;13.35;;
76320;SDS011;65132;52.088;5.402;2023-09-12T05:06:25;27.77;;;11.93;;
76320;SDS011;65132;52.088;5.402;2023-09-12T05:08:55;47.13;;;14.27;;
76320;SDS011;65132;52.088;5.402;2023-09-12T05:11:26;58.88;;;13.80;;
76320;SDS011;65132;52.088;5.402;2023-09-12T05:13:55;59.78;;;12.38;;
76320;SDS011;65132;52.088;5.402;2023-09-12T05:16:33;37.50;;;11.40;;
76320;SDS011;65132;52.088;5.402;2023-09-12T05:19:01;26.55;;;10.85;;
76320;SDS011;65132;52.088;5.402;2023-09-12T05:21:28;21.25;;;11.25;;
76320;SDS011;65132;52.088;5.402;2023-09-12T05:23:57;23.48;;;11.55;;
76320;SDS011;65132;52.088;5.402;2023-09-12T05:26:23;23.45;;;11.82;;
76320;SDS011;65132;52.088;5.402;2023-09-12T05:29:01;23.63;;;12.68;;
76320;SDS011;65132;52.088;5.402;2023-09-12T05:31:31;22.30;;;11.90;;
76320;SDS011;65132;52.088;5.402;2023-09-12T05:33:58;25.15;;;12.18;;
76320;SDS011;65132;52.088;5.402;2023-09-12T05:36:24;20.95;;;10.95;;
76320;SDS011;65132;52.088;5.402;2023-09-12T05:38:51;21.88;;;10.73;;
76320;SDS011;65132;52.088;5.402;2023-09-12T05:41:17;24.67;;;12.30;;
76320;SDS011;65132;52.088;5.402;2023-09-12T05:43:46;27.10;;;12.80;;
76320;SDS011;65132;52.088;5.402;2023-09-12T05:46:13;19.95;;;11.07;;
76320;SDS011;65132;52.088;5.402;2023-09-12T05:48:39;20.63;;;11.05;;
76320;SDS011;65132;52.088;5.402;2023-09-12T05:51:06;22.98;;;11.10;;
76320;SDS011;65132;52.088;5.402;2023-09-12T05:53:33;19.85;;;9.80;;
76320;SDS011;65132;52.088;5.402;2023-09-12T05:55:59;21.40;;;10.32;;
76320;SDS011;65132;52.088;5.402;2023-09-12T05:58:27;19.00;;;9.98;;
76320;SDS011;65132;52.088;5.402;2023-09-12T06:00:54;20.55;;;11.20;;
76320;SDS011;65132;52.088;5.402;2023-09-12T06:03:21;21.10;;;11.77;;
76320;SDS011;65132;52.088;5.402;2023-09-12T06:05:48;20.65;;;10.50;;
76320;SDS011;65132;52.088;5.402;2023-09-12T06:08:14;17.80;;;9.55;;
76320;SDS011;65132;52.088;5.402;2023-09-12T06:10:41;19.40;;;10.30;;
76320;SDS011;65132;52.088;5.402;2023-09-12T06:13:07;20.35;;;10.00;;
76320;SDS011;65132;52.088;5.402;2023-09-12T06:15:38;22.02;;;11.20;;
76320;SDS011;65132;52.088;5.402;2023-09-12T06:20:47;20.35;;;10.27;;
76320;SDS011;65132;52.088;5.402;2023-09-12T06:23:17;19.05;;;9.95;;
76320;SDS011;65132;52.088;5.402;2023-09-12T06:25:48;21.92;;;10.70;;
76320;SDS011;65132;52.088;5.402;2023-09-12T06:28:29;20.90;;;10.20;;
76320;SDS011;65132;52.088;5.402;2023-09-12T06:31:02;26.00;;;12.05;;
76320;SDS011;65132;52.088;5.402;2023-09-12T06:33:32;25.75;;;12.63;;
76320;SDS011;65132;52.088;5.402;2023-09-12T06:36:05;24.15;;;11.60;;
76320;SDS011;65132;52.088;5.402;2023-09-12T06:38:31;28.80;;;13.68;;
76320;SDS011;65132;52.088;5.402;2023-09-12T06:40:58;28.05;;;13.32;;
76320;SDS011;65132;52.088;5.402;2023-09-12T06:43:28;31.60;;;14.27;;
76320;SDS011;65132;52.088;5.402;2023-09-12T06:45:54;30.83;;;14.73;;
76320;SDS011;65132;52.088;5.402;2023-09-12T06:48:27;31.25;;;13.95;;
76320;SDS011;65132;52.088;5.402;2023-09-12T06:50:56;33.75;;;15.05;;
76320;SDS011;65132;52.088;5.402;2023-09-12T06:53:23;35.08;;;15.20;;
76320;SDS011;65132;52.088;5.402;2023-09-12T06:55:59;32.72;;;13.93;;
76320;SDS011;65132;52.088;5.402;2023-09-12T06:58:32;23.15;;;11.68;;
76320;SDS011;65132;52.088;5.402;2023-09-12T07:01:10;35.25;;;16.63;;
76320;SDS011;65132;52.088;5.402;2023-09-12T07:03:42;39.55;;;18.02;;
76320;SDS011;65132;52.088;5.402;2023-09-12T07:06:23;42.22;;;17.98;;
76320;SDS011;65132;52.088;5.402;2023-09-12T07:08:53;44.22;;;18.35;;
76320;SDS011;65132;52.088;5.402;2023-09-12T07:11:21;39.22;;;18.13;;
76320;SDS011;65132;52.088;5.402;2023-09-12T07:13:49;41.03;;;17.58;;
76320;SDS011;65132;52.088;5.402;2023-09-12T07:16:18;48.30;;;19.13;;
76320;SDS011;65132;52.088;5.402;2023-09-12T07:18:48;47.42;;;20.55;;
76320;SDS011;65132;52.088;5.402;2023-09-12T07:21:21;48.88;;;20.67;;
76320;SDS011;65132;52.088;5.402;2023-09-12T07:23:50;44.28;;;18.58;;
76320;SDS011;65132;52.088;5.402;2023-09-12T07:26:30;42.28;;;19.23;;
76320;SDS011;65132;52.088;5.402;2023-09-12T07:28:57;46.08;;;20.58;;
76320;SDS011;65132;52.088;5.402;2023-09-12T07:31:26;42.45;;;19.20;;
76320;SDS011;65132;52.088;5.402;2023-09-12T07:33:53;34.47;;;16.23;;
76320;SDS011;65132;52.088;5.402;2023-09-12T07:36:20;38.33;;;17.98;;
76320;SDS011;65132;52.088;5.402;2023-09-12T07:38:59;37.90;;;18.50;;
76320;SDS011;65132;52.088;5.402;2023-09-12T07:41:27;41.15;;;18.15;;
76320;SDS011;65132;52.088;5.402;2023-09-12T07:43:54;42.45;;;18.25;;
76320;SDS011;65132;52.088;5.402;2023-09-12T07:46:23;39.03;;;18.70;;
76320;SDS011;65132;52.088;5.402;2023-09-12T07:48:49;44.35;;;19.30;;
76320;SDS011;65132;52.088;5.402;2023-09-12T07:51:26;48.50;;;19.20;;
76320;SDS011;65132;52.088;5.402;2023-09-12T07:53:54;40.05;;;17.73;;
76320;SDS011;65132;52.088;5.402;2023-09-12T07:56:23;43.40;;;18.83;;
76320;SDS011;65132;52.088;5.402;2023-09-12T07:58:51;37.95;;;17.55;;
76320;SDS011;65132;52.088;5.402;2023-09-12T08:01:17;34.45;;;16.48;;
76320;SDS011;65132;52.088;5.402;2023-09-12T08:03:44;38.28;;;18.50;;
76320;SDS011;65132;52.088;5.402;2023-09-12T08:06:11;32.63;;;15.50;;
76320;SDS011;65132;52.088;5.402;2023-09-12T08:08:37;32.97;;;15.18;;
76320;SDS011;65132;52.088;5.402;2023-09-12T08:11:20;31.70;;;14.50;;
76320;SDS011;65132;52.088;5.402;2023-09-12T08:13:48;30.33;;;14.80;;
76320;SDS011;65132;52.088;5.402;2023-09-12T08:16:15;33.00;;;15.75;;
76320;SDS011;65132;52.088;5.402;2023-09-12T08:18:42;31.42;;;14.32;;
76320;SDS011;65132;52.088;5.402;2023-09-12T08:21:09;27.50;;;14.00;;
76320;SDS011;65132;52.088;5.402;2023-09-12T08:23:38;27.80;;;14.50;;
76320;SDS011;65132;52.088;5.402;2023-09-12T08:26:05;29.00;;;13.65;;
76320;SDS011;65132;52.088;5.402;2023-09-12T08:28:35;28.00;;;13.40;;
76320;SDS011;65132;52.088;5.402;2023-09-12T08:31:03;30.55;;;14.55;;
76320;SDS011;65132;52.088;5.402;2023-09-12T08:33:30;29.27;;;13.75;;
76320;SDS011;65132;52.088;5.402;2023-09-12T08:36:15;33.10;;;14.80;;
76320;SDS011;65132;52.088;5.402;2023-09-12T08:38:41;34.53;;;16.02;;
76320;SDS011;65132;52.088;5.402;2023-09-12T08:41:08;32.20;;;14.55;;
76320;SDS011;65132;52.088;5.402;2023-09-12T08:43:49;32.42;;;15.52;;
76320;SDS011;65132;52.088;5.402;2023-09-12T08:46:17;33.75;;;14.90;;
76320;SDS011;65132;52.088;5.402;2023-09-12T08:48:53;29.60;;;14.90;;
76320;SDS011;65132;52.088;5.402;2023-09-12T08:51:22;28.15;;;13.70;;
76320;SDS011;65132;52.088;5.402;2023-09-12T08:53:49;35.13;;;15.93;;
76320;SDS011;65132;52.088;5.402;2023-09-12T08:56:21;33.00;;;15.55;;
76320;SDS011;65132;52.088;5.402;2023-09-12T08:58:47;31.70;;;14.27;;
76320;SDS011;65132;52.088;5.402;2023-09-12T09:01:14;31.10;;;14.15;;
76320;SDS011;65132;52.088;5.402;2023-09-12T09:03:47;33.83;;;15.52;;
76320;SDS011;65132;52.088;5.402;2023-09-12T09:06:20;29.33;;;14.85;;
76320;SDS011;65132;52.088;5.402;2023-09-12T09:08:49;33.42;;;16.88;;
76320;SDS011;65132;52.088;5.402;2023-09-12T09:11:16;29.63;;;15.00;;
76320;SDS011;65132;52.088;5.402;2023-09-12T09:13:43;32.20;;;15.73;;
76320;SDS011;65132;52.088;5.402;2023-09-12T09:16:14;35.85;;;15.77;;
76320;SDS011;65132;52.088;5.402;2023-09-12T09:19:02;34.05;;;16.15;;
76320;SDS011;65132;52.088;5.402;2023-09-12T09:21:30;31.23;;;15.98;;
76320;SDS011;65132;52.088;5.402;2023-09-12T09:24:06;26.70;;;14.07;;
76320;SDS011;65132;52.088;5.402;2023-09-12T09:26:45;34.13;;;16.48;;
76320;SDS011;65132;52.088;5.402;2023-09-12T09:29:15;36.17;;;17.98;;
76320;SDS011;65132;52.088;5.402;2023-09-12T09:31:51;35.88;;;17.30;;
76320;SDS011;65132;52.088;5.402;2023-09-12T09:34:21;33.92;;;17.30;;
76320;SDS011;65132;52.088;5.402;2023-09-12T09:36:50;31.70;;;15.95;;
76320;SDS011;65132;52.088;5.402;2023-09-12T09:39:23;33.95;;;16.90;;
76320;SDS011;65132;52.088;5.402;2023-09-12T09:42:01;32.85;;;17.00;;
76320;SDS011;65132;52.088;5.402;2023-09-12T09:44:27;34.15;;;16.42;;
76320;SDS011;65132;52.088;5.402;2023-09-12T09:46:55;36.13;;;18.67;;
76320;SDS011;65132;52.088;5.402;2023-09-12T09:49:32;34.90;;;17.20;;
76320;SDS011;65132;52.088;5.402;2023-09-12T09:52:06;33.92;;;17.42;;
76320;SDS011;65132;52.088;5.402;2023-09-12T09:54:33;34.80;;;15.98;;
76320;SDS011;65132;52.088;5.402;2023-09-12T09:57:00;33.20;;;16.65;;
76320;SDS011;65132;52.088;5.402;2023-09-12T09:59:28;33.45;;;15.57;;
76320;SDS011;65132;52.088;5.402;2023-09-12T10:02:06;34.67;;;16.33;;
76320;SDS011;65132;52.088;5.402;2023-09-12T10:04:44;30.92;;;15.32;;
76320;SDS011;65132;52.088;5.402;2023-09-12T10:07:25;34.28;;;16.27;;
76320;SDS011;65132;52.088;5.402;2023-09-12T10:09:53;34.70;;;17.23;;
76320;SDS011;65132;52.088;5.402;2023-09-12T10:12:21;28.33;;;14.15;;
76320;SDS011;65132;52.088;5.402;2023-09-12T10:14:50;29.38;;;14.30;;
76320;SDS011;65132;52.088;5.402;2023-09-12T10:17:19;32.13;;;14.60;;
76320;SDS011;65132;52.088;5.402;2023-09-12T10:19:55;28.85;;;14.60;;
76320;SDS011;65132;52.088;5.402;2023-09-12T10:22:34;29.70;;;14.13;;
76320;SDS011;65132;52.088;5.402;2023-09-12T10:25:23;25.05;;;13.93;;
76320;SDS011;65132;52.088;5.402;2023-09-12T10:27:50;25.38;;;14.02;;
76320;SDS011;65132;52.088;5.402;2023-09-12T10:30:18;25.83;;;14.00;;
76320;SDS011;65132;52.088;5.402;2023-09-12T10:32:46;25.83;;;13.00;;
76320;SDS011;65132;52.088;5.402;2023-09-12T10:35:14;21.20;;;11.23;;
76320;SDS011;65132;52.088;5.402;2023-09-12T10:37:41;21.48;;;11.98;;
76320;SDS011;65132;52.088;5.402;2023-09-12T10:42:56;26.58;;;14.40;;
76320;SDS011;65132;52.088;5.402;2023-09-12T10:45:27;27.52;;;14.18;;
76320;SDS011;65132;52.088;5.402;2023-09-12T10:48:01;24.70;;;13.75;;
76320;SDS011;65132;52.088;5.402;2023-09-12T10:50:30;24.55;;;13.27;;
76320;SDS011;65132;52.088;5.402;2023-09-12T11:03:45;25.02;;;12.40;;
76320;SDS011;65132;52.088;5.402;2023-09-12T11:06:21;21.15;;;11.98;;
76320;SDS011;65132;52.088;5.402;2023-09-12T11:11:37;18.15;;;10.02;;
76320;SDS011;65132;52.088;5.402;2023-09-12T11:14:12;19.90;;;11.50;;
76320;SDS011;65132;52.088;5.402;2023-09-12T11:16:38;20.83;;;12.20;;
76320;SDS011;65132;52.088;5.402;2023-09-12T11:21:39;19.13;;;11.38;;
76320;SDS011;65132;52.088;5.402;2023-09-12T11:24:05;23.25;;;12.52;;
76320;SDS011;65132;52.088;5.402;2023-09-12T11:29:26;22.20;;;12.00;;
76320;SDS011;65132;52.088;5.402;2023-09-12T11:31:56;21.65;;;12.65;;
76320;SDS011;65132;52.088;5.402;2023-09-12T11:34:27;18.55;;;11.25;;
76320;SDS011;65132;52.088;5.402;2023-09-12T11:36:59;19.92;;;10.80;;
76320;SDS011;65132;52.088;5.402;2023-09-12T11:39:30;19.88;;;10.98;;
76320;SDS011;65132;52.088;5.402;2023-09-12T11:41:59;17.48;;;10.20;;
76320;SDS011;65132;52.088;5.402;2023-09-12T11:44:29;16.08;;;9.68;;
76320;SDS011;65132;52.088;5.402;2023-09-12T11:47:03;16.08;;;9.98;;
76320;SDS011;65132;52.088;5.402;2023-09-12T11:49:37;15.98;;;9.75;;
76320;SDS011;65132;52.088;5.402;2023-09-12T11:52:13;20.20;;;9.43;;
76320;SDS011;65132;52.088;5.402;2023-09-12T11:54:50;16.02;;;9.38;;
76320;SDS011;65132;52.088;5.402;2023-09-12T11:57:21;17.50;;;10.55;;
76320;SDS011;65132;52.088;5.402;2023-09-12T11:59:48;16.50;;;10.45;;
76320;SDS011;65132;52.088;5.402;2023-09-12T12:02:15;18.40;;;10.68;;
76320;SDS011;65132;52.088;5.402;2023-09-12T12:04:50;18.38;;;10.88;;
76320;SDS011;65132;52.088;5.402;2023-09-12T12:07:17;17.58;;;10.20;;
76320;SDS011;65132;52.088;5.402;2023-09-12T12:09:47;15.48;;;9.90;;
76320;SDS011;65132;52.088;5.402;2023-09-12T12:12:17;14.85;;;9.57;;
76320;SDS011;65132;52.088;5.402;2023-09-12T12:14:45;13.90;;;8.05;;
76320;SDS011;65132;52.088;5.402;2023-09-12T12:17:20;17.17;;;9.50;;
76320;SDS011;65132;52.088;5.402;2023-09-12T12:19:47;13.50;;;8.57;;
76320;SDS011;65132;52.088;5.402;2023-09-12T12:22:22;13.10;;;8.23;;
76320;SDS011;65132;52.088;5.402;2023-09-12T12:24:49;15.13;;;8.77;;
76320;SDS011;65132;52.088;5.402;2023-09-12T12:27:16;17.15;;;10.63;;
76320;SDS011;65132;52.088;5.402;2023-09-12T12:29:49;16.17;;;10.10;;
76320;SDS011;65132;52.088;5.402;2023-09-12T12:32:24;14.02;;;9.18;;
76320;SDS011;65132;52.088;5.402;2023-09-12T12:34:50;14.07;;;8.48;;
76320;SDS011;65132;52.088;5.402;2023-09-12T12:37:37;12.98;;;6.80;;
76320;SDS011;65132;52.088;5.402;2023-09-12T12:40:12;12.55;;;7.20;;
76320;SDS011;65132;52.088;5.402;2023-09-12T12:42:42;8.88;;;4.78;;
76320;SDS011;65132;52.088;5.402;2023-09-12T12:45:21;9.30;;;5.75;;
76320;SDS011;65132;52.088;5.402;2023-09-12T12:47:57;9.32;;;5.43;;
76320;SDS011;65132;52.088;5.402;2023-09-12T12:50:35;10.05;;;5.15;;
76320;SDS011;65132;52.088;5.402;2023-09-12T12:53:04;8.13;;;3.83;;
76320;SDS011;65132;52.088;5.402;2023-09-12T12:55:37;7.80;;;3.78;;
76320;SDS011;65132;52.088;5.402;2023-09-12T12:58:11;8.52;;;4.38;;
76320;SDS011;65132;52.088;5.402;2023-09-12T13:00:42;7.70;;;5.13;;
76320;SDS011;65132;52.088;5.402;2023-09-12T13:03:12;7.75;;;4.93;;
76320;SDS011;65132;52.088;5.402;2023-09-12T13:05:39;7.70;;;4.88;;
76320;SDS011;65132;52.088;5.402;2023-09-12T13:08:05;12.38;;;6.20;;
76320;SDS011;65132;52.088;5.402;2023-09-12T13:10:32;10.30;;;6.28;;
76320;SDS011;65132;52.088;5.402;2023-09-12T13:13:15;8.05;;;5.07;;
76320;SDS011;65132;52.088;5.402;2023-09-12T13:15:45;10.32;;;6.20;;
76320;SDS011;65132;52.088;5.402;2023-09-12T13:18:14;12.35;;;6.18;;
76320;SDS011;65132;52.088;5.402;2023-09-12T13:20:43;8.48;;;5.35;;
76320;SDS011;65132;52.088;5.402;2023-09-12T13:23:11;10.15;;;5.75;;
76320;SDS011;65132;52.088;5.402;2023-09-12T13:25:41;9.57;;;5.57;;
76320;SDS011;65132;52.088;5.402;2023-09-12T13:28:12;9.18;;;5.93;;
76320;SDS011;65132;52.088;5.402;2023-09-12T13:30:39;9.07;;;4.43;;
76320;SDS011;65132;52.088;5.402;2023-09-12T13:33:06;9.38;;;5.35;;
76320;SDS011;65132;52.088;5.402;2023-09-12T13:35:33;6.35;;;4.68;;
76320;SDS011;65132;52.088;5.402;2023-09-12T13:38:04;8.20;;;4.95;;
76320;SDS011;65132;52.088;5.402;2023-09-12T13:40:41;8.23;;;4.10;;
76320;SDS011;65132;52.088;5.402;2023-09-12T13:43:13;10.68;;;4.72;;
76320;SDS011;65132;52.088;5.402;2023-09-12T13:45:45;8.23;;;5.13;;
76320;SDS011;65132;52.088;5.402;2023-09-12T13:48:12;7.13;;;4.70;;
76320;SDS011;65132;52.088;5.402;2023-09-12T13:50:38;9.60;;;5.22;;
76320;SDS011;65132;52.088;5.402;2023-09-12T13:53:06;8.98;;;4.90;;
76320;SDS011;65132;52.088;5.402;2023-09-12T13:55:46;10.05;;;5.90;;
76320;SDS011;65132;52.088;5.402;2023-09-12T13:58:20;14.35;;;5.55;;
76320;SDS011;65132;52.088;5.402;2023-09-12T14:00:52;8.98;;;4.90;;
76320;SDS011;65132;52.088;5.402;2023-09-12T14:03:21;10.88;;;5.75;;
76320;SDS011;65132;52.088;5.402;2023-09-12T14:05:47;10.32;;;5.85;;
76320;SDS011;65132;52.088;5.402;2023-09-12T14:08:15;11.77;;;6.03;;
76320;SDS011;65132;52.088;5.402;2023-09-12T14:10:46;9.68;;;5.68;;
76320;SDS011;65132;52.088;5.402;2023-09-12T14:13:14;10.20;;;6.03;;
76320;SDS011;65132;52.088;5.402;2023-09-12T14:15:48;7.53;;;3.70;;
76320;SDS011;65132;52.088;5.402;2023-09-12T14:18:17;6.75;;;3.45;;
76320;SDS011;65132;52.088;5.402;2023-09-12T14:20:45;8.63;;;3.67;;
76320;SDS011;65132;52.088;5.402;2023-09-12T14:23:26;6.55;;;3.22;;
76320;SDS011;65132;52.088;5.402;2023-09-12T14:25:55;5.75;;;3.60;;
76320;SDS011;65132;52.088;5.402;2023-09-12T14:28:27;5.63;;;3.22;;
76320;SDS011;65132;52.088;5.402;2023-09-12T14:31:09;7.68;;;2.90;;
76320;SDS011;65132;52.088;5.402;2023-09-12T14:33:45;4.20;;;2.88;;
76320;SDS011;65132;52.088;5.402;2023-09-12T14:38:41;5.63;;;3.35;;
76320;SDS011;65132;52.088;5.402;2023-09-12T14:41:09;5.43;;;2.95;;
76320;SDS011;65132;52.088;5.402;2023-09-12T14:43:38;6.00;;;2.85;;
76320;SDS011;65132;52.088;5.402;2023-09-12T14:46:07;6.70;;;3.53;;
76320;SDS011;65132;52.088;5.402;2023-09-12T14:48:33;7.43;;;3.47;;
76320;SDS011;65132;52.088;5.402;2023-09-12T14:51:00;7.05;;;3.28;;
76320;SDS011;65132;52.088;5.402;2023-09-12T14:53:30;9.20;;;3.92;;
76320;SDS011;65132;52.088;5.402;2023-09-12T14:55:56;7.57;;;3.92;;
76320;SDS011;65132;52.088;5.402;2023-09-12T14:58:25;5.90;;;3.65;;
76320;SDS011;65132;52.088;5.402;2023-09-12T15:00:51;5.97;;;4.13;;
76320;SDS011;65132;52.088;5.402;2023-09-12T15:03:18;8.23;;;4.45;;
76320;SDS011;65132;52.088;5.402;2023-09-12T15:05:45;8.23;;;4.82;;
76320;SDS011;65132;52.088;5.402;2023-09-12T15:08:11;9.50;;;4.57;;
76320;SDS011;65132;52.088;5.402;2023-09-12T15:10:45;8.20;;;4.45;;
76320;SDS011;65132;52.088;5.402;2023-09-12T15:13:14;7.80;;;4.03;;
76320;SDS011;65132;52.088;5.402;2023-09-12T15:15:41;6.78;;;4.13;;
76320;SDS011;65132;52.088;5.402;2023-09-12T15:18:10;8.27;;;3.95;;
76320;SDS011;65132;52.088;5.402;2023-09-12T15:20:38;8.38;;;4.47;;
76320;SDS011;65132;52.088;5.402;2023-09-12T15:23:04;6.85;;;4.25;;
76320;SDS011;65132;52.088;5.402;2023-09-12T15:25:31;8.70;;;4.25;;